Time;durP1;ratioP1;P1;durP2;ratioP2;P2;SDS_P1;SDS_P2;PMS_P1;PMS_P2;Temp;Humidity;BMP_temperature;BMP_pressure;BME280_temperature;BME280_humidity;BME280_pressure;Samples;Min_cycle;Max_cycle;Signal;HPM_P1;HPM_P2
2021/12/09 05:33:58;;;;;;;;;1.00;1.00;;;;;5.12;68.68;100271.88;4999379;28;45393;-47
2021/12/09 05:36:24;;;;;;;;;1.00;1.00;;;;;5.23;68.23;100281.28;4999327;28;46089;-46
2021/12/09 05:38:49;;;;;;;;;3.25;1.00;;;;;5.35;68.27;100285.34;4999623;28;45385;-49
2021/12/09 05:41:14;;;;;;;;;2.75;2.00;;;;;5.37;67.59;100277.28;4998753;28;45318;-46
2021/12/09 05:43:40;;;;;;;;;1.00;1.00;;;;;5.40;68.07;100286.06;5000415;28;45309;-45
2021/12/09 05:46:06;;;;;;;;;3.00;1.00;;;;;5.45;67.60;100277.91;5002402;28;46074;-46
2021/12/09 05:48:31;;;;;;;;;2.25;1.25;;;;;5.50;67.44;100271.53;5002929;28;45323;-46
2021/12/09 05:50:57;;;;;;;;;1.00;1.00;;;;;5.49;67.57;100287.53;5002842;28;45243;-45
2021/12/09 05:53:23;;;;;;;;;2.25;1.50;;;;;5.36;67.20;100260.47;5002823;28;45542;-48
2021/12/09 05:55:48;;;;;;;;;3.50;2.00;;;;;5.50;67.52;100283.97;5002149;28;45215;-47
2021/12/09 05:58:16;;;;;;;;;1.25;1.00;;;;;5.55;66.94;100285.53;5002594;28;45253;-46
2021/12/09 06:00:43;;;;;;;;;2.00;2.00;;;;;5.44;67.72;100284.19;5002578;28;45432;-47
2021/12/09 06:03:09;;;;;;;;;2.00;2.00;;;;;5.42;67.72;100283.34;5002858;28;45488;-47
2021/12/09 06:05:35;;;;;;;;;2.00;2.00;;;;;5.45;67.48;100292.06;5002206;28;46256;-48
2021/12/09 06:08:01;;;;;;;;;10.00;3.00;;;;;5.43;67.33;100291.28;5002492;28;45282;-47
2021/12/09 06:10:27;;;;;;;;;6.25;2.25;;;;;5.44;67.35;100293.03;5002208;28;45397;-47
2021/12/09 06:12:52;;;;;;;;;4.00;4.00;;;;;5.33;67.67;100293.34;5002501;28;45528;-45
2021/12/09 06:15:17;;;;;;;;;5.00;3.00;;;;;5.44;67.52;100305.44;5001904;28;45978;-46
2021/12/09 06:17:43;;;;;;;;;3.50;2.00;;;;;5.40;67.52;100294.03;5002469;28;45200;-47
2021/12/09 06:20:09;;;;;;;;;2.50;2.50;;;;;5.39;67.81;100288.75;5002322;28;45367;-45
2021/12/09 06:22:34;;;;;;;;;2.00;2.00;;;;;5.42;67.46;100302.81;5002276;28;45623;-47
2021/12/09 06:25:00;;;;;;;;;5.50;2.25;;;;;5.40;67.49;100302.00;5001828;28;46094;-45
2021/12/09 06:27:25;;;;;;;;;2.25;2.25;;;;;5.45;68.20;100307.16;4991981;28;45257;-47
2021/12/09 06:29:51;;;;;;;;;8.25;5.00;;;;;5.44;67.43;100293.03;4986100;28;45160;-47
2021/12/09 06:32:16;;;;;;;;;4.50;3.00;;;;;5.45;67.39;100317.78;5000987;28;45329;-46
2021/12/09 06:34:41;;;;;;;;;5.00;5.00;;;;;5.41;67.63;100324.13;5001521;28;45372;-49
2021/12/09 06:37:07;;;;;;;;;3.00;3.00;;;;;5.28;67.72;100302.38;5001897;28;45345;-46
2021/12/09 06:39:32;;;;;;;;;3.00;1.75;;;;;5.30;67.86;100303.19;5001737;28;45324;-47
2021/12/09 06:41:58;;;;;;;;;4.50;4.50;;;;;5.41;67.73;100305.53;5001879;28;45334;-45
2021/12/09 06:44:23;;;;;;;;;6.50;4.00;;;;;5.52;67.02;100322.03;5001732;28;46161;-46
2021/12/09 06:46:49;;;;;;;;;6.25;2.50;;;;;5.43;67.50;100330.28;5001815;28;45349;-46
2021/12/09 06:49:15;;;;;;;;;4.00;3.00;;;;;5.30;67.74;100337.75;5002071;28;45290;-48
2021/12/09 06:51:40;;;;;;;;;5.00;4.00;;;;;5.26;68.22;100336.13;5001922;28;45453;-47
2021/12/09 06:54:06;;;;;;;;;4.50;3.00;;;;;5.08;68.06;100308.31;5001052;28;45953;-46
2021/12/09 06:56:32;;;;;;;;;5.00;5.00;;;;;5.09;68.18;100333.09;5001256;28;45238;-46
2021/12/09 06:58:59;;;;;;;;;3.00;3.00;;;;;5.10;68.58;100332.19;5001588;28;45491;-45
2021/12/09 07:01:25;;;;;;;;;3.50;3.50;;;;;5.13;68.18;100338.25;5001564;28;45257;-45
2021/12/09 07:03:51;;;;;;;;;8.25;4.25;;;;;5.03;68.79;100336.78;5000929;28;48570;-46
2021/12/09 07:06:17;;;;;;;;;5.25;4.50;;;;;5.05;68.61;100339.41;5001673;28;45333;-49
2021/12/09 07:08:46;;;;;;;;;9.50;4.00;;;;;5.01;68.73;100335.13;5001416;28;45468;-46
2021/12/09 07:11:13;;;;;;;;;5.75;3.25;;;;;5.07;68.75;100337.59;5001258;28;45447;-49
2021/12/09 07:13:39;;;;;;;;;7.00;5.25;;;;;5.02;68.30;100335.06;5000925;28;47140;-46
2021/12/09 07:16:04;;;;;;;;;7.00;4.00;;;;;5.00;68.44;100342.22;5001115;28;45425;-46
2021/12/09 07:18:30;;;;;;;;;5.00;5.00;;;;;4.94;69.00;100340.59;5001185;28;45277;-46
2021/12/09 07:20:57;;;;;;;;;2.75;2.75;;;;;4.92;68.53;100341.56;5001160;28;45774;-46
2021/12/09 07:23:23;;;;;;;;;5.50;4.75;;;;;4.92;68.67;100350.41;5000932;28;46528;-47
2021/12/09 07:25:48;;;;;;;;;5.00;4.75;;;;;4.91;68.83;100338.03;5000740;28;45403;-47
2021/12/09 07:28:14;;;;;;;;;8.75;5.00;;;;;4.89;68.98;100342.53;4984587;28;45273;-47
2021/12/09 07:30:40;;;;;;;;;2.50;2.50;;;;;4.84;69.17;100325.00;4991407;28;45274;-47
2021/12/09 07:33:05;;;;;;;;;7.75;6.00;;;;;4.99;69.07;100337.81;4988667;28;45464;-47
2021/12/09 07:35:32;;;;;;;;;7.50;3.25;;;;;5.00;68.29;100338.69;5001071;28;45360;-47
2021/12/09 07:38:00;;;;;;;;;5.00;4.50;;;;;4.93;68.71;100335.34;4990510;28;45342;-44
2021/12/09 07:40:25;;;;;;;;;9.50;5.00;;;;;4.86;68.65;100331.09;5000587;28;45358;-45
2021/12/09 07:42:50;;;;;;;;;3.50;3.25;;;;;4.89;68.52;100337.22;4991689;28;45260;-49
2021/12/09 07:45:16;;;;;;;;;8.75;6.50;;;;;4.93;68.63;100336.19;5000788;28;45666;-48
2021/12/09 07:47:43;;;;;;;;;3.25;3.25;;;;;4.89;68.32;100337.22;4993037;28;45505;-46
2021/12/09 07:50:13;;;;;;;;;6.00;5.00;;;;;4.87;69.01;100338.16;5000081;28;46070;-46
2021/12/09 07:52:42;;;;;;;;;5.00;5.00;;;;;4.85;68.59;100343.50;5000606;28;47130;-45
2021/12/09 07:55:10;;;;;;;;;6.75;2.75;;;;;4.88;68.56;100347.88;4987497;28;45520;-47
2021/12/09 07:57:36;;;;;;;;;7.00;5.50;;;;;4.91;68.62;100343.38;4999120;28;45407;-47
2021/12/09 08:00:08;;;;;;;;;6.25;6.00;;;;;4.84;68.34;100336.50;4992756;28;45467;-45
2021/12/09 08:02:33;;;;;;;;;4.00;2.75;;;;;4.74;68.67;100340.31;5000037;28;46441;-48
2021/12/09 08:04:59;;;;;;;;;9.25;7.25;;;;;4.77;68.92;100347.31;4999911;28;45472;-47
2021/12/09 08:07:24;;;;;;;;;12.25;8.75;;;;;4.75;69.04;100333.22;4999478;28;45332;-47
2021/12/09 08:09:51;;;;;;;;;6.00;6.00;;;;;4.90;69.18;100344.28;4995687;28;45529;-46
2021/12/09 08:12:16;;;;;;;;;6.00;6.00;;;;;4.95;68.27;100354.75;5000162;28;46361;-47
2021/12/09 08:14:42;;;;;;;;;7.75;6.00;;;;;4.96;68.15;100348.53;4996957;28;45440;-46
2021/12/09 08:17:22;;;;;;;;;8.00;6.00;;;;;4.99;68.17;100350.22;4990694;28;45501;-45
2021/12/09 08:19:48;;;;;;;;;6.00;6.00;;;;;4.89;68.00;100352.28;4977194;28;45584;-45
2021/12/09 08:22:15;;;;;;;;;9.25;5.75;;;;;4.86;68.63;100345.25;4981462;28;45591;-47
2021/12/09 08:24:41;;;;;;;;;9.50;8.25;;;;;4.87;68.03;100344.34;4981160;28;45723;-46
2021/12/09 08:27:06;;;;;;;;;6.50;4.25;;;;;4.76;68.73;100353.56;4975287;28;45442;-46
2021/12/09 08:29:31;;;;;;;;;9.75;5.75;;;;;4.72;68.86;100336.84;4976057;28;45512;-47
2021/12/09 08:31:56;;;;;;;;;9.50;4.75;;;;;4.66;69.21;100349.41;4999155;28;45757;-47
2021/12/09 08:34:22;;;;;;;;;11.25;7.25;;;;;4.63;68.82;100331.78;4989022;28;45316;-48
2021/12/09 08:36:48;;;;;;;;;9.50;6.00;;;;;4.67;69.11;100346.72;4999071;28;45444;-47
2021/12/09 08:39:13;;;;;;;;;9.00;5.00;;;;;4.71;69.21;100339.53;4988609;28;45617;-48
2021/12/09 08:41:39;;;;;;;;;5.25;5.00;;;;;4.74;68.56;100334.13;4998241;28;46210;-47
2021/12/09 08:44:06;;;;;;;;;9.00;5.75;;;;;4.75;69.14;100351.81;4990443;28;45372;-45
2021/12/09 08:46:32;;;;;;;;;5.25;2.00;;;;;4.73;69.14;100345.66;4998094;28;45350;-47
2021/12/09 08:48:57;;;;;;;;;10.25;5.25;;;;;4.73;69.28;100343.88;4991508;28;45547;-46
2021/12/09 08:51:23;;;;;;;;;10.00;6.25;;;;;4.74;69.09;100350.06;4998206;28;46406;-49
2021/12/09 08:53:48;;;;;;;;;9.00;7.25;;;;;4.77;69.08;100352.63;4992570;28;45321;-45
2021/12/09 08:56:14;;;;;;;;;5.25;5.00;;;;;4.75;69.03;100355.34;4998190;28;45418;-51
2021/12/09 08:58:39;;;;;;;;;8.25;8.25;;;;;4.65;69.01;100367.13;4994125;28;45454;-46
2021/12/09 09:01:05;;;;;;;;;8.25;5.00;;;;;4.74;68.92;100368.66;4988056;28;46171;-46
2021/12/09 09:03:30;;;;;;;;;10.50;6.75;;;;;4.76;69.12;100367.72;4988663;28;45379;-47
2021/12/09 09:05:56;;;;;;;;;9.25;7.00;;;;;4.86;69.05;100378.91;4998594;28;45296;-46
2021/12/09 09:08:21;;;;;;;;;4.50;4.25;;;;;4.92;68.77;100371.66;4997155;28;46098;-46
2021/12/09 09:10:47;;;;;;;;;7.00;5.75;;;;;5.06;68.34;100381.88;4997546;28;45258;-45
2021/12/09 09:13:14;;;;;;;;;7.00;6.75;;;;;5.03;68.62;100383.75;4998245;28;45386;-44
2021/12/09 09:15:40;;;;;;;;;11.00;8.75;;;;;5.02;68.66;100382.03;4985742;28;45426;-48
2021/12/09 09:18:07;;;;;;;;;6.25;5.25;;;;;5.04;68.19;100381.03;4997902;28;45405;-47
2021/12/09 09:20:38;;;;;;;;;6.50;4.50;;;;;5.15;68.37;100392.25;4986652;28;47024;-46
2021/12/09 09:23:05;;;;;;;;;7.00;5.50;;;;;5.28;68.31;100390.94;4996728;28;45252;-45
2021/12/09 09:25:31;;;;;;;;;5.50;5.50;;;;;5.39;67.93;100387.97;4987581;28;45474;-46
2021/12/09 09:28:00;;;;;;;;;5.25;5.00;;;;;5.49;67.29;100400.06;4996400;28;46043;-46
2021/12/09 09:30:34;;;;;;;;;6.00;6.00;;;;;5.47;67.66;100396.59;4985577;28;45482;-46
2021/12/09 09:33:01;;;;;;;;;10.00;5.00;;;;;5.49;67.49;100381.47;4997600;28;45441;-45
2021/12/09 09:35:27;;;;;;;;;4.50;4.50;;;;;5.57;67.47;100402.50;4991072;28;45554;-46
2021/12/09 09:37:52;;;;;;;;;7.00;5.00;;;;;5.61;67.42;100405.00;4997878;28;45521;-47
2021/12/09 09:40:27;;;;;;;;;3.00;2.00;;;;;5.61;66.82;100399.69;4991580;28;46638;-47
2021/12/09 09:42:59;;;;;;;;;12.00;6.25;;;;;5.68;67.13;100405.69;4997543;28;45642;-46
2021/12/09 09:45:25;;;;;;;;;7.25;5.00;;;;;5.74;67.02;100413.47;4993477;28;45324;-45
2021/12/09 09:47:53;;;;;;;;;6.25;4.50;;;;;5.87;67.00;100413.97;4997671;28;45477;-45
2021/12/09 09:50:18;;;;;;;;;6.75;4.50;;;;;6.01;66.78;100425.06;4993453;28;45317;-47
2021/12/09 09:52:44;;;;;;;;;6.75;3.00;;;;;6.07;66.54;100436.38;4997788;28;45313;-47
2021/12/09 09:55:14;;;;;;;;;3.00;3.00;;;;;6.16;66.45;100426.34;4996196;28;45308;-47
2021/12/09 09:57:39;;;;;;;;;4.00;4.00;;;;;6.07;65.59;100408.91;4997443;28;46355;-45
2021/12/09 10:00:09;;;;;;;;;4.50;4.00;;;;;6.20;66.06;100428.88;4985484;28;46185;-46
2021/12/09 10:02:34;;;;;;;;;6.00;5.75;;;;;6.20;65.54;100423.56;4995977;28;45452;-46
2021/12/09 10:05:02;;;;;;;;;8.00;5.00;;;;;6.18;65.62;100420.06;4986981;28;45376;-46
2021/12/09 10:07:29;;;;;;;;;11.00;5.00;;;;;6.33;66.06;100427.53;4996327;28;45420;-48
2021/12/09 10:09:55;;;;;;;;;6.00;5.00;;;;;6.29;65.51;100420.59;4988325;28;46202;-47
2021/12/09 10:12:21;;;;;;;;;8.25;5.00;;;;;6.42;65.41;100419.25;4995978;28;45368;-45
2021/12/09 10:14:52;;;;;;;;;3.75;3.50;;;;;6.46;65.02;100418.19;4989903;28;45716;-45
2021/12/09 10:17:20;;;;;;;;;5.50;3.50;;;;;6.54;64.68;100412.63;4971450;28;45421;-46
2021/12/09 10:19:53;;;;;;;;;3.50;3.50;;;;;6.70;64.51;100413.84;4984071;28;45519;-47
2021/12/09 10:22:23;;;;;;;;;9.75;3.00;;;;;6.77;64.54;100410.03;4996992;28;45696;-46
2021/12/09 10:24:51;;;;;;;;;3.50;2.25;;;;;6.86;64.44;100410.63;4993204;28;45358;-45
2021/12/09 10:27:25;;;;;;;;;9.00;3.00;;;;;7.00;63.75;100401.19;4987169;28;46524;-47
2021/12/09 10:29:56;;;;;;;;;6.00;5.00;;;;;7.14;63.32;100396.22;4981313;28;46067;-49
2021/12/09 10:32:28;;;;;;;;;7.50;2.25;;;;;7.27;63.25;100390.41;4999920;28;45452;-48
2021/12/09 10:34:54;;;;;;;;;6.75;3.00;;;;;7.30;62.69;100391.19;4997982;28;45484;-47
2021/12/09 10:37:30;;;;;;;;;4.75;3.00;;;;;7.41;63.02;100393.41;4999786;28;45424;-45
2021/12/09 10:40:20;;;;;;;;;9.25;4.50;;;;;7.43;61.76;100386.25;4998772;28;45694;-47
2021/12/09 10:42:45;;;;;;;;;6.75;4.00;;;;;7.54;62.67;100392.91;4992873;28;45525;-45
2021/12/09 10:45:20;;;;;;;;;5.00;3.00;;;;;7.64;62.48;100388.09;4983930;28;45798;-46
2021/12/09 10:47:58;;;;;;;;;5.00;3.00;;;;;7.70;61.88;100386.97;4988007;28;45423;-46
2021/12/09 10:50:35;;;;;;;;;6.50;2.00;;;;;7.81;61.94;100384.75;4989455;28;47267;-44
2021/12/09 10:55:47;;;;;;;;;6.50;4.00;;;;;8.04;60.73;100378.44;4989419;28;45402;-45
2021/12/09 10:58:16;;;;;;;;;7.00;3.00;;;;;8.15;60.55;100373.53;4999777;28;45586;-44
2021/12/09 11:00:44;;;;;;;;;5.75;3.25;;;;;8.21;61.02;100371.47;4990318;28;46454;-44
2021/12/09 11:03:33;;;;;;;;;6.00;3.75;;;;;8.09;60.76;100363.97;4999845;28;45413;-44
2021/12/09 11:06:06;;;;;;;;;5.50;3.00;;;;;8.23;60.35;100361.63;4980791;28;45440;-45
2021/12/09 11:08:36;;;;;;;;;1.00;1.00;;;;;8.41;60.30;100356.44;4999433;28;45400;-44
2021/12/09 11:11:19;;;;;;;;;5.00;3.25;;;;;8.84;59.33;100358.97;4992909;28;46216;-45
2021/12/09 11:13:54;;;;;;;;;2.75;2.75;;;;;9.02;58.72;100359.91;4996386;28;45473;-44
2021/12/09 11:16:27;;;;;;;;;4.25;4.25;;;;;8.95;58.17;100342.44;4995016;28;45481;-46
2021/12/09 11:19:19;;;;;;;;;4.50;4.50;;;;;8.90;58.10;100360.50;4999476;28;45271;-45
2021/12/09 11:21:57;;;;;;;;;6.75;4.75;;;;;8.85;58.51;100352.66;4996081;28;46517;-48
2021/12/09 11:24:28;;;;;;;;;2.00;2.00;;;;;8.88;57.64;100354.34;4999243;28;45335;-43
2021/12/09 11:27:05;;;;;;;;;4.50;4.25;;;;;8.78;57.95;100345.00;4997636;28;45455;-46
2021/12/09 11:29:36;;;;;;;;;7.75;5.50;;;;;8.83;58.75;100349.22;4985883;28;46110;-44
2021/12/09 11:32:17;;;;;;;;;8.50;5.50;;;;;8.98;58.64;100350.31;4990381;28;47230;-46
2021/12/09 11:35:01;;;;;;;;;8.00;4.75;;;;;8.99;57.86;100346.72;4998942;28;45461;-45
2021/12/09 11:40:02;;;;;;;;;10.25;6.00;;;;;8.93;57.81;100347.00;4994746;28;45324;-44
2021/12/09 11:42:37;;;;;;;;;6.00;4.25;;;;;8.90;58.18;100336.44;4992967;28;45475;-45
2021/12/09 11:45:06;;;;;;;;;2.00;2.00;;;;;8.90;57.79;100342.66;4995116;28;45413;-45
2021/12/09 11:47:31;;;;;;;;;2.00;2.00;;;;;8.92;58.45;100330.09;4994700;28;45409;-48
2021/12/09 11:49:57;;;;;;;;;4.25;2.75;;;;;8.96;58.11;100339.69;4996292;28;45504;-45
2021/12/09 11:52:24;;;;;;;;;3.50;3.00;;;;;8.95;57.35;100327.25;4994176;28;46202;-45
2021/12/09 11:54:58;;;;;;;;;3.00;3.00;;;;;9.10;57.92;100339.91;4998473;28;45356;-45
2021/12/09 11:57:37;;;;;;;;;4.00;2.00;;;;;9.02;57.74;100326.03;4999824;28;45422;-44
2021/12/09 12:24:30;;;;;;;;;4.25;3.00;;;;;9.37;57.36;100302.97;4969695;28;45481;-46
2021/12/09 12:40:24;;;;;;;;;6.00;4.00;;;;;9.01;58.30;100291.38;4964899;28;45485;-46
2021/12/09 12:43:06;;;;;;;;;6.25;3.00;;;;;8.94;58.32;100292.56;4991275;28;45689;-46
2021/12/09 12:46:04;;;;;;;;;8.50;4.00;;;;;9.04;58.25;100299.22;4994490;28;46048;-45
2021/12/09 12:49:16;;;;;;;;;2.25;2.25;;;;;9.11;57.75;100308.69;4980162;28;47361;-46
2021/12/09 12:54:13;;;;;;;;;4.75;3.00;;;;;8.92;58.34;100302.50;4997003;28;45369;-45
2021/12/09 12:56:54;;;;;;;;;4.25;3.00;;;;;8.92;58.42;100299.81;4997329;28;45442;-45
2021/12/09 12:59:24;;;;;;;;;6.00;4.00;;;;;8.98;58.06;100319.09;4998283;28;45521;-46
2021/12/09 13:02:04;;;;;;;;;3.00;2.25;;;;;9.02;58.19;100309.13;4984894;28;45482;-45
2021/12/09 13:04:37;;;;;;;;;2.75;2.00;;;;;8.96;58.07;100304.94;4998034;28;45354;-45
2021/12/09 13:07:51;;;;;;;;;3.00;3.00;;;;;8.99;58.64;100318.16;4986698;28;46230;-45
2021/12/09 13:13:07;;;;;;;;;3.00;3.00;;;;;9.01;58.85;100297.59;4991525;28;45341;-47
2021/12/09 13:15:48;;;;;;;;;2.00;2.00;;;;;8.97;59.09;100282.59;4996215;28;45335;-45
2021/12/09 13:18:43;;;;;;;;;3.00;2.00;;;;;8.96;58.41;100293.38;4993705;28;45368;-45
2021/12/09 13:21:36;;;;;;;;;5.75;3.00;;;;;9.02;58.29;100301.09;4991435;28;45266;-45
2021/12/09 13:24:29;;;;;;;;;2.25;2.25;;;;;9.04;58.94;100291.22;4978342;28;45376;-45
2021/12/09 13:27:06;;;;;;;;;2.25;2.25;;;;;8.91;58.46;100301.63;4986658;28;45456;-45
2021/12/09 13:29:42;;;;;;;;;2.50;2.50;;;;;8.83;58.43;100308.25;4979302;28;46114;-45
2021/12/09 13:32:39;;;;;;;;;3.00;2.25;;;;;8.85;59.03;100299.19;4992572;28;47154;-45
2021/12/09 13:35:11;;;;;;;;;6.50;4.00;;;;;8.92;58.72;100297.13;4997584;28;45686;-46
2021/12/09 13:38:06;;;;;;;;;5.50;2.75;;;;;8.90;58.92;100291.00;4994057;28;45412;-44
2021/12/09 13:46:35;;;;;;;;;3.00;3.00;;;;;8.93;58.87;100289.03;4996286;28;45326;-45
2021/12/09 13:49:18;;;;;;;;;3.00;2.00;;;;;9.00;58.50;100285.16;4997679;28;45259;-44
2021/12/09 13:54:29;;;;;;;;;3.75;2.50;;;;;8.94;58.74;100289.88;4994034;28;45333;-44
2021/12/09 13:57:05;;;;;;;;;2.00;2.00;;;;;8.79;58.63;100283.47;4987280;28;45426;-45
2021/12/09 13:59:34;;;;;;;;;2.25;2.25;;;;;8.91;59.29;100301.63;4971924;28;45263;-46
2021/12/09 14:02:11;;;;;;;;;3.75;2.50;;;;;8.85;59.61;100291.19;4983564;28;45562;-45
2021/12/09 14:04:37;;;;;;;;;5.25;1.75;;;;;8.80;59.65;100292.34;4998106;28;46481;-45
2021/12/09 14:07:11;;;;;;;;;6.00;2.00;;;;;8.91;59.54;100293.59;4991922;28;45665;-46
2021/12/09 14:09:38;;;;;;;;;6.00;2.75;;;;;8.89;59.44;100282.09;5000610;28;45575;-44
2021/12/09 14:12:05;;;;;;;;;6.00;3.00;;;;;8.91;59.66;100290.06;4993118;28;45480;-45
2021/12/09 14:14:56;;;;;;;;;8.50;2.00;;;;;8.88;59.37;100291.06;5000279;28;46338;-45
2021/12/09 14:17:24;;;;;;;;;4.50;2.75;;;;;9.00;59.84;100285.16;4994861;28;45855;-44
2021/12/09 14:20:06;;;;;;;;;3.75;3.00;;;;;8.92;59.83;100279.28;5000702;28;45349;-47
2021/12/09 14:22:37;;;;;;;;;6.00;3.50;;;;;8.99;60.17;100278.06;4996390;28;45636;-45
2021/12/09 14:25:09;;;;;;;;;3.25;3.25;;;;;8.98;60.17;100268.31;5000397;28;46629;-46
2021/12/09 14:27:35;;;;;;;;;4.75;2.00;;;;;9.06;60.24;100259.91;4997816;28;45350;-44
2021/12/09 14:30:00;;;;;;;;;5.00;3.50;;;;;9.07;60.23;100265.19;4987326;28;45511;-44
2021/12/09 14:32:29;;;;;;;;;7.00;4.50;;;;;9.16;60.26;100263.91;4998883;28;45362;-45
2021/12/09 14:35:00;;;;;;;;;3.00;3.00;;;;;9.23;60.32;100268.00;5000306;28;45397;-46
2021/12/09 14:37:27;;;;;;;;;6.00;3.25;;;;;9.20;60.00;100249.41;4987024;28;45374;-45
2021/12/09 14:40:14;;;;;;;;;2.50;2.50;;;;;9.33;59.91;100261.28;4994474;28;45599;-41
2021/12/09 14:42:56;;;;;;;;;7.00;6.00;;;;;9.42;59.93;100251.94;4999627;28;45310;-41
2021/12/09 14:45:37;;;;;;;;;8.25;2.50;;;;;9.48;59.49;100260.53;5000115;28;47022;-44
2021/12/09 14:48:07;;;;;;;;;2.00;2.00;;;;;9.54;59.10;100274.53;4989187;28;45416;-44
2021/12/09 14:50:43;;;;;;;;;5.75;2.50;;;;;9.39;59.31;100276.16;4999517;28;45503;-48
2021/12/09 14:53:09;;;;;;;;;4.00;2.50;;;;;9.30;59.87;100260.56;4990920;28;46080;-46
2021/12/09 14:55:43;;;;;;;;;5.25;4.00;;;;;9.30;59.88;100258.75;4999150;28;46480;-46
2021/12/09 14:58:13;;;;;;;;;3.75;2.75;;;;;9.34;59.87;100264.81;4992380;28;45396;-46
2021/12/09 15:00:38;;;;;;;;;3.75;3.00;;;;;9.32;60.13;100261.34;4996588;28;45712;-45
2021/12/09 15:03:07;;;;;;;;;2.75;1.50;;;;;9.26;59.51;100249.16;4999380;28;45628;-47
2021/12/09 15:05:43;;;;;;;;;6.50;3.75;;;;;9.24;60.04;100250.16;4999428;28;46429;-45
2021/12/09 15:08:10;;;;;;;;;6.75;4.00;;;;;9.18;59.62;100240.63;4995254;28;45377;-46
2021/12/09 15:10:36;;;;;;;;;9.00;4.00;;;;;9.17;60.28;100236.22;4999673;28;45336;-45
2021/12/09 15:13:06;;;;;;;;;3.75;3.75;;;;;9.09;60.27;100236.59;4996976;28;45922;-49
2021/12/09 15:15:33;;;;;;;;;4.50;3.00;;;;;9.11;60.34;100229.34;4999202;28;46180;-45
2021/12/09 15:18:04;;;;;;;;;7.00;3.50;;;;;9.05;60.20;100234.13;4997943;28;45460;-47
2021/12/09 15:20:39;;;;;;;;;3.25;2.25;;;;;8.95;61.04;100227.47;4999640;28;45585;-47
2021/12/09 15:25:37;;;;;;;;;7.00;2.75;;;;;8.99;60.79;100215.72;4999355;28;45728;-47
2021/12/09 15:28:04;;;;;;;;;4.50;3.25;;;;;9.04;60.51;100224.34;4996773;28;45826;-45
2021/12/09 15:30:41;;;;;;;;;6.00;3.00;;;;;8.98;61.07;100224.66;4988298;28;45924;-45
2021/12/09 15:33:09;;;;;;;;;3.00;2.75;;;;;8.91;61.12;100217.88;4989207;28;45575;-46
2021/12/09 15:35:35;;;;;;;;;3.50;3.50;;;;;8.86;61.27;100219.88;4999384;28;46645;-46
2021/12/09 15:38:03;;;;;;;;;4.00;4.00;;;;;8.81;61.17;100224.59;4990271;28;45416;-47
2021/12/09 15:40:38;;;;;;;;;6.00;4.00;;;;;8.70;61.82;100225.94;4998921;28;45393;-45
2021/12/09 15:43:13;;;;;;;;;5.75;3.75;;;;;8.71;61.61;100227.69;4991452;28;45341;-45
2021/12/09 15:45:38;;;;;;;;;6.00;6.00;;;;;8.69;61.59;100226.00;4992916;28;48403;-46
2021/12/09 15:48:17;;;;;;;;;5.50;3.00;;;;;8.57;62.25;100223.94;4992444;28;45747;-47
2021/12/09 15:50:43;;;;;;;;;4.00;4.00;;;;;8.48;62.63;100211.88;4997100;28;45978;-46
2021/12/09 15:53:08;;;;;;;;;6.00;3.00;;;;;8.42;62.65;100220.13;4998682;28;45269;-44
2021/12/09 15:55:38;;;;;;;;;3.25;3.00;;;;;8.26;62.97;100219.06;4998213;28;46179;-46
2021/12/09 15:58:07;;;;;;;;;3.00;3.00;;;;;8.21;63.11;100215.75;4995596;28;45353;-47
2021/12/09 16:00:35;;;;;;;;;4.50;3.25;;;;;8.21;63.28;100213.94;4998852;28;45684;-45
2021/12/09 16:03:03;;;;;;;;;9.00;4.00;;;;;8.24;63.13;100219.16;4996824;28;45417;-46
2021/12/09 16:05:30;;;;;;;;;11.50;7.00;;;;;8.10;63.89;100213.53;4998050;28;46298;-47
2021/12/09 16:07:55;;;;;;;;;6.00;3.75;;;;;8.13;63.88;100216.09;4998535;28;45322;-46
2021/12/09 16:10:20;;;;;;;;;8.00;4.00;;;;;8.15;63.70;100224.91;4998579;28;45743;-46
2021/12/09 16:12:46;;;;;;;;;5.50;4.00;;;;;8.14;63.84;100215.16;4989828;28;45645;-45
2021/12/09 16:15:15;;;;;;;;;5.50;4.00;;;;;8.16;63.79;100220.44;4995083;28;47033;-45
2021/12/09 16:17:44;;;;;;;;;6.00;6.00;;;;;8.14;64.10;100217.81;4998450;28;45490;-44
2021/12/09 16:20:15;;;;;;;;;8.50;4.00;;;;;8.09;63.92;100221.59;4998714;28;45168;-44
2021/12/09 16:22:41;;;;;;;;;6.50;3.00;;;;;7.97;64.70;100209.69;4991400;28;45961;-47
2021/12/09 16:25:11;;;;;;;;;6.00;6.00;;;;;7.95;64.77;100206.22;4996178;28;45392;-45
2021/12/09 16:27:44;;;;;;;;;8.50;6.25;;;;;7.87;64.52;100205.69;4991914;28;45363;-45
2021/12/09 16:30:13;;;;;;;;;8.00;6.00;;;;;7.85;65.16;100207.53;4981342;28;45615;-45
2021/12/09 16:32:42;;;;;;;;;8.00;6.00;;;;;7.84;64.75;100196.00;4985361;28;45413;-45
2021/12/09 16:35:09;;;;;;;;;6.25;3.00;;;;;7.84;65.08;100197.78;4972879;28;46173;-45
2021/12/09 16:37:38;;;;;;;;;8.75;6.00;;;;;7.84;64.89;100190.66;4992806;28;45648;-45
2021/12/09 16:40:13;;;;;;;;;10.25;6.25;;;;;7.81;65.58;100193.47;4998239;28;45340;-46
2021/12/09 16:42:39;;;;;;;;;3.00;3.00;;;;;7.76;65.36;100184.78;4997751;28;45470;-45
2021/12/09 16:45:06;;;;;;;;;8.00;6.00;;;;;7.79;65.44;100181.13;4998318;28;47022;-44
2021/12/09 16:47:32;;;;;;;;;6.00;6.00;;;;;7.74;65.58;100185.81;4995539;28;45552;-46
2021/12/09 16:49:57;;;;;;;;;7.00;7.00;;;;;7.67;66.28;100186.97;4998813;28;45293;-45
2021/12/09 16:52:22;;;;;;;;;7.50;6.75;;;;;7.62;66.12;100187.19;4997580;28;45748;-48
2021/12/09 16:54:52;;;;;;;;;11.50;6.00;;;;;7.62;66.57;100187.19;4996570;28;47471;-46
2021/12/09 16:59:47;;;;;;;;;7.50;6.00;;;;;7.64;66.17;100168.44;4987937;28;45420;-47
2021/12/09 17:02:13;;;;;;;;;6.25;6.25;;;;;7.63;66.12;100167.59;4996837;28;45319;-48
2021/12/09 17:04:41;;;;;;;;;9.50;5.75;;;;;7.61;66.09;100158.78;4993827;28;46715;-46
2021/12/09 17:07:09;;;;;;;;;8.75;5.50;;;;;7.60;66.62;100151.69;4998026;28;45399;-44
2021/12/09 17:09:35;;;;;;;;;9.00;6.50;;;;;7.63;66.21;100150.72;4988033;28;45342;-45
2021/12/09 17:12:02;;;;;;;;;7.25;6.25;;;;;7.62;66.72;100144.50;4998150;28;45396;-50
2021/12/09 17:14:28;;;;;;;;;11.25;7.75;;;;;7.56;67.15;100140.31;4989329;28;46071;-47
2021/12/09 17:16:55;;;;;;;;;10.50;7.25;;;;;7.57;66.84;100142.03;4997384;28;45756;-47
2021/12/09 17:19:21;;;;;;;;;10.75;7.75;;;;;7.56;67.08;100144.78;4990755;28;45483;-46
2021/12/09 17:21:47;;;;;;;;;11.00;5.75;;;;;7.53;67.34;100147.56;4997672;28;45274;-47
2021/12/09 17:24:13;;;;;;;;;15.75;11.00;;;;;7.52;66.93;100148.50;4991467;28;46298;-47
2021/12/09 17:26:40;;;;;;;;;11.00;7.25;;;;;7.43;67.75;100141.75;4993896;28;45380;-47
2021/12/09 17:29:08;;;;;;;;;13.50;7.00;;;;;7.39;67.54;100126.84;4978013;28;45481;-49
2021/12/09 17:31:42;;;;;;;;;10.25;7.00;;;;;7.37;67.99;100130.50;4994955;28;45997;-48
2021/12/09 17:34:09;;;;;;;;;11.75;8.00;;;;;7.30;68.24;100129.88;4994532;28;47036;-45
2021/12/09 17:36:36;;;;;;;;;15.25;9.50;;;;;7.18;69.00;100117.06;4997516;28;45435;-47
2021/12/09 17:39:05;;;;;;;;;7.00;6.75;;;;;7.20;69.05;100110.75;4991978;28;45322;-46
2021/12/09 17:41:33;;;;;;;;;10.00;10.00;;;;;7.08;69.80;100102.38;4996762;28;45518;-49
2021/12/09 17:43:59;;;;;;;;;9.50;8.50;;;;;7.15;69.02;100106.50;4984947;28;46137;-49
2021/12/09 17:46:24;;;;;;;;;12.50;11.00;;;;;7.18;68.80;100104.59;4995385;28;45638;-45
2021/12/09 17:48:49;;;;;;;;;8.00;8.00;;;;;7.15;69.34;100094.06;4986318;28;45680;-50
2021/12/09 17:51:18;;;;;;;;;10.00;7.75;;;;;7.15;68.97;100101.19;4996480;28;45907;-47
2021/12/09 17:53:43;;;;;;;;;8.00;7.25;;;;;7.16;69.21;100106.47;4996737;28;46522;-46
2021/12/09 17:56:13;;;;;;;;;19.00;6.75;;;;;7.14;68.71;100096.81;4997371;28;45475;-48
2021/12/09 17:58:38;;;;;;;;;7.75;7.50;;;;;7.14;68.99;100089.69;4988365;28;45671;-45
2021/12/09 18:01:04;;;;;;;;;13.25;7.00;;;;;7.23;68.71;100096.41;4996965;28;45741;-49
2021/12/09 18:03:29;;;;;;;;;15.25;7.50;;;;;7.23;68.87;100081.25;4995815;28;46523;-45
2021/12/09 18:05:54;;;;;;;;;16.50;11.25;;;;;7.19;69.10;100082.34;4997076;28;45454;-45
2021/12/09 18:08:20;;;;;;;;;12.75;7.25;;;;;7.18;68.97;100074.41;4991141;28;45337;-47
2021/12/09 18:10:50;;;;;;;;;6.50;6.00;;;;;7.19;68.62;100068.16;4996015;28;45275;-46
2021/12/09 18:13:19;;;;;;;;;11.25;7.25;;;;;7.20;68.78;100065.44;4996700;28;46376;-46
2021/12/09 18:15:46;;;;;;;;;14.00;8.00;;;;;7.18;68.58;100055.75;4971620;28;45799;-44
2021/12/09 18:18:12;;;;;;;;;11.25;7.25;;;;;7.25;68.75;100070.53;4996943;28;45373;-45